createdAt,value
2018-11-23T00:01:41.880Z,90.71
2018-11-23T00:02:41.930Z,90.90
2018-11-23T00:04:36.248Z,90.52
2018-11-23T00:05:36.220Z,89.05
2018-11-23T00:07:30.578Z,89.14
2018-11-23T00:08:30.577Z,88.48
2018-11-23T00:10:24.937Z,89.09
2018-11-23T00:11:24.912Z,89.33
2018-11-23T00:13:19.275Z,90.05
2018-11-23T00:14:19.247Z,88.71
2018-11-23T00:16:13.616Z,89.28
2018-11-23T00:17:13.584Z,89.24
2018-11-23T00:19:08.233Z,88.67
2018-11-23T00:20:07.929Z,88.86
2018-11-23T00:22:02.292Z,88.43
2018-11-23T00:23:02.274Z,89.28
2018-11-23T00:24:56.706Z,89.38
2018-11-23T00:25:56.643Z,90.14
2018-11-23T00:27:51.011Z,89.95
2018-11-23T00:28:50.965Z,89.67
2018-11-23T00:30:45.400Z,89.38
2018-11-23T00:31:45.312Z,89.19
2018-11-23T00:33:39.734Z,89.86
2018-11-23T00:34:39.652Z,90.42
2018-11-23T00:36:34.026Z,90.23
2018-11-23T00:37:33.996Z,90.42
2018-11-23T00:39:28.417Z,89.95
2018-11-23T00:40:28.345Z,89.47
2018-11-23T00:42:22.742Z,89.19
2018-11-23T00:43:22.679Z,89.24
2018-11-23T00:45:17.154Z,89.19
2018-11-23T00:46:17.037Z,89.57
2018-11-23T00:48:11.392Z,89.76
2018-11-23T00:49:11.385Z,89.57
2018-11-23T00:51:05.821Z,89.90
2018-11-23T00:52:05.806Z,89.57
2018-11-23T00:54:00.099Z,89.57
2018-11-23T00:55:00.089Z,89.19
2018-11-23T00:56:54.447Z,89.19
2018-11-23T00:57:54.433Z,89.47
2018-11-23T00:59:48.795Z,89.76
2018-11-23T01:00:48.784Z,88.90
2018-11-23T01:02:43.277Z,90.52
2018-11-23T01:03:43.136Z,91.09
2018-11-23T01:05:37.512Z,90.33
2018-11-23T01:06:37.483Z,90.61
2018-11-23T01:08:31.856Z,90.42
2018-11-23T01:09:31.833Z,90.80
2018-11-23T01:11:26.191Z,90.52
2018-11-23T01:12:26.182Z,90.90
2018-11-23T01:14:20.564Z,90.71
2018-11-23T01:15:20.531Z,90.71
2018-11-23T01:17:14.906Z,91.28
2018-11-23T01:18:14.888Z,91.47
2018-11-23T01:20:09.366Z,90.80
2018-11-23T01:21:09.242Z,90.52
2018-11-23T01:23:03.598Z,91.28
2018-11-23T01:24:03.588Z,91.19
2018-11-23T01:25:57.949Z,91.09
2018-11-23T01:26:57.985Z,90.99
2018-11-23T01:28:52.295Z,90.61
2018-11-23T01:29:52.285Z,91.09
2018-11-23T01:31:46.652Z,91.28
2018-11-23T01:32:46.642Z,91.47
2018-11-23T01:34:40.997Z,90.80
2018-11-23T01:35:40.994Z,91.38
2018-11-23T01:37:35.411Z,90.90
2018-11-23T01:38:35.337Z,90.42
2018-11-23T01:40:29.696Z,90.52
2018-11-23T01:41:29.688Z,90.99
2018-11-23T01:43:24.336Z,91.28
2018-11-23T01:44:24.037Z,91.28
2018-11-23T01:46:18.394Z,90.52
2018-11-23T01:47:18.394Z,91.28
2018-11-23T01:49:12.827Z,91.38
2018-11-23T01:50:12.733Z,91.85
2018-11-23T01:52:07.092Z,91.94
2018-11-23T01:53:07.080Z,91.38
2018-11-23T01:55:01.461Z,91.28
2018-11-23T01:56:01.437Z,91.28
2018-11-23T01:57:56.374Z,90.71
2018-11-23T01:58:55.791Z,90.90
2018-11-23T02:00:50.162Z,90.71
2018-11-23T02:01:50.141Z,90.71
2018-11-23T02:03:44.500Z,91.28
2018-11-23T02:04:44.489Z,91.19
2018-11-23T02:06:38.864Z,90.71
2018-11-23T02:07:38.835Z,90.61
2018-11-23T02:09:33.225Z,90.99
2018-11-23T02:10:33.173Z,90.61
2018-11-23T02:12:27.531Z,90.14
2018-11-23T02:13:27.522Z,90.14
2018-11-23T02:15:22.001Z,90.71
2018-11-23T02:16:21.871Z,90.61
2018-11-23T02:18:16.229Z,90.42
2018-11-23T02:19:16.222Z,90.71
2018-11-23T02:21:10.584Z,91.09
2018-11-23T02:22:10.573Z,91.19
2018-11-23T02:24:04.936Z,91.28
2018-11-23T02:25:04.930Z,90.99
2018-11-23T02:26:59.276Z,90.90
2018-11-23T02:27:59.266Z,91.38
2018-11-23T02:29:53.630Z,90.99
2018-11-23T02:30:53.617Z,91.19
2018-11-23T02:32:48.076Z,90.80
2018-11-23T02:33:47.956Z,90.99
2018-11-23T02:35:42.312Z,89.86
2018-11-23T02:36:42.307Z,90.99
2018-11-23T02:38:36.743Z,92.23
2018-11-23T02:39:36.645Z,92.23
2018-11-23T02:41:31.010Z,91.47
2018-11-23T02:42:30.997Z,90.61
2018-11-23T02:44:25.359Z,90.61
2018-11-23T02:45:25.351Z,90.99
2018-11-23T02:47:19.708Z,91.47
2018-11-23T02:48:19.696Z,91.56
2018-11-23T02:50:14.095Z,90.90
2018-11-23T02:51:14.045Z,90.61
2018-11-23T02:53:08.419Z,91.19
2018-11-23T02:54:08.408Z,90.90
2018-11-23T02:56:02.884Z,90.99
2018-11-23T02:57:02.798Z,90.71
2018-11-23T02:58:57.126Z,90.71
2018-11-23T02:59:57.110Z,90.71
2018-11-23T03:01:51.462Z,90.52
2018-11-23T03:02:51.447Z,90.52
2018-11-23T03:04:45.800Z,90.99
2018-11-23T03:05:45.791Z,90.99
2018-11-23T03:07:40.152Z,90.42
2018-11-23T03:08:40.143Z,90.33
2018-11-23T03:10:34.507Z,90.71
2018-11-23T03:11:34.496Z,90.71
2018-11-23T03:13:28.865Z,90.99
2018-11-23T03:14:28.835Z,91.09
2018-11-23T03:16:23.447Z,91.19
2018-11-23T03:17:23.185Z,91.19
2018-11-23T03:19:17.545Z,92.42
2018-11-23T03:20:17.534Z,91.94
2018-11-23T03:22:11.903Z,92.23
2018-11-23T03:23:11.894Z,92.13
2018-11-23T03:25:06.251Z,91.56
2018-11-23T03:26:06.237Z,92.13
2018-11-23T03:28:00.590Z,91.09
2018-11-23T03:29:00.578Z,91.38
2018-11-23T03:30:54.944Z,91.28
2018-11-23T03:31:54.928Z,91.56
2018-11-23T03:33:49.516Z,90.90
2018-11-23T03:34:49.266Z,91.09
2018-11-23T03:36:43.622Z,91.28
2018-11-23T03:37:43.614Z,91.47
2018-11-23T03:39:42.773Z,90.71
2018-11-23T03:40:42.760Z,90.71
2018-11-23T03:42:37.120Z,90.80
2018-11-23T03:43:37.109Z,90.05
2018-11-23T03:45:31.462Z,91.19
2018-11-23T03:46:31.450Z,90.80
2018-11-23T03:48:25.814Z,90.71
2018-11-23T03:49:25.801Z,90.42
2018-11-23T03:51:20.266Z,90.23
2018-11-23T03:52:20.152Z,90.05
2018-11-23T03:54:14.500Z,89.67
2018-11-23T03:55:14.487Z,90.52
2018-11-23T03:57:08.924Z,90.71
2018-11-23T03:58:08.841Z,90.23
2018-11-23T04:00:08.031Z,89.95
2018-11-23T04:01:08.035Z,89.28
2018-11-23T04:03:02.363Z,90.52
2018-11-23T04:04:02.355Z,89.95
2018-11-23T04:05:56.712Z,90.23
2018-11-23T04:06:56.698Z,90.23
2018-11-23T04:08:51.063Z,90.23
2018-11-23T04:09:51.039Z,90.23
2018-11-23T04:11:45.398Z,90.42
2018-11-23T04:12:45.386Z,90.05
2018-11-23T04:14:40.002Z,90.42
2018-11-23T04:15:39.732Z,89.86
2018-11-23T04:17:34.078Z,90.42
2018-11-23T04:18:36.657Z,90.19
2018-11-23T04:20:28.433Z,89.53
2018-11-23T04:21:28.421Z,89.33
2018-11-23T04:23:22.784Z,89.53
2018-11-23T04:24:22.769Z,89.67
2018-11-23T04:26:24.357Z,88.39
2018-11-23T04:27:17.127Z,88.20
2018-11-23T04:29:11.475Z,88.20
2018-11-23T04:30:11.462Z,86.96
2018-11-23T04:32:05.839Z,86.77
2018-11-23T04:33:05.816Z,87.53
2018-11-23T04:35:00.229Z,87.24
2018-11-23T04:36:00.161Z,86.58
2018-11-23T04:37:54.539Z,86.11
2018-11-23T04:38:54.518Z,86.20
2018-11-23T04:40:48.881Z,87.91
2018-11-23T04:41:48.852Z,88.48
2018-11-23T04:43:43.206Z,87.43
2018-11-23T04:44:43.248Z,87.15
2018-11-23T04:46:37.670Z,86.96
2018-11-23T04:47:37.546Z,86.87
2018-11-23T04:49:32.688Z,86.87
2018-11-23T04:50:32.636Z,86.87
2018-11-23T04:52:27.074Z,86.87
2018-11-23T04:53:26.995Z,86.77
2018-11-23T04:55:21.342Z,86.87
2018-11-23T04:56:21.332Z,86.87
2018-11-23T04:58:15.691Z,86.49
2018-11-23T04:59:15.685Z,86.77
2018-11-23T05:01:10.033Z,86.87
2018-11-23T05:02:10.027Z,86.96
2018-11-23T05:04:04.403Z,87.57
2018-11-23T05:05:04.373Z,87.34
2018-11-23T05:06:58.734Z,87.05
2018-11-23T05:07:58.722Z,86.77
2018-11-23T05:09:53.175Z,87.19
2018-11-23T05:10:53.057Z,87.01
2018-11-23T05:12:47.414Z,87.76
2018-11-23T05:13:47.405Z,88.53
2018-11-23T05:15:41.843Z,88.53
2018-11-23T05:16:41.746Z,88.43
2018-11-23T05:18:36.114Z,88.43
2018-11-23T05:19:36.101Z,88.34
2018-11-23T05:21:30.461Z,88.71
2018-11-23T05:22:30.451Z,87.76
2018-11-23T05:24:24.809Z,88.71
2018-11-23T05:25:24.796Z,88.90
2018-11-23T05:27:19.266Z,88.62
2018-11-23T05:28:19.135Z,89.09
2018-11-23T05:30:13.493Z,89.19
2018-11-23T05:31:13.484Z,88.76
2018-11-23T05:33:07.921Z,88.67
2018-11-23T05:34:07.835Z,88.76
2018-11-23T05:36:02.205Z,88.20
2018-11-23T05:37:02.186Z,88.43
2018-11-23T05:38:56.549Z,88.01
2018-11-23T05:39:56.539Z,86.77
2018-11-23T05:41:50.893Z,87.15
2018-11-23T05:42:50.884Z,87.15
2018-11-23T05:44:45.252Z,86.87
2018-11-23T05:45:45.220Z,86.87
2018-11-23T05:47:39.693Z,87.15
2018-11-23T05:48:39.571Z,88.01
2018-11-23T05:50:33.927Z,87.62
2018-11-23T05:51:33.918Z,87.53
2018-11-23T05:53:28.315Z,88.39
2018-11-23T05:54:28.262Z,88.29
2018-11-23T05:56:27.491Z,88.48
2018-11-23T05:57:27.482Z,89.43
2018-11-23T05:59:21.886Z,88.10
2018-11-23T06:00:21.837Z,88.57
2018-11-23T06:02:16.190Z,87.53
2018-11-23T06:03:16.177Z,86.39
2018-11-23T06:05:10.842Z,86.49
2018-11-23T06:06:10.524Z,86.58
2018-11-23T06:08:04.885Z,86.20
2018-11-23T06:09:04.870Z,85.91
2018-11-23T06:10:59.302Z,86.11
2018-11-23T06:11:59.217Z,85.91
2018-11-23T06:13:53.574Z,85.44
2018-11-23T06:14:53.563Z,86.68
2018-11-23T06:16:47.921Z,85.82
2018-11-23T06:17:47.909Z,86.39
2018-11-23T06:19:42.266Z,86.20
2018-11-23T06:20:42.256Z,86.49
2018-11-23T06:22:36.641Z,86.39
2018-11-23T06:23:36.614Z,86.49
2018-11-23T06:25:30.979Z,86.87
2018-11-23T06:26:30.952Z,86.96
2018-11-23T06:28:25.348Z,87.15
2018-11-23T06:29:25.296Z,86.87
2018-11-23T06:31:19.653Z,87.34
2018-11-23T06:32:19.646Z,87.24
2018-11-23T06:34:14.042Z,87.24
2018-11-23T06:35:13.995Z,88.01
2018-11-23T06:37:08.356Z,88.48
2018-11-23T06:38:08.346Z,87.72
2018-11-23T06:40:02.749Z,88.95
2018-11-23T06:41:02.736Z,88.48
2018-11-23T06:42:57.061Z,87.72
2018-11-23T06:43:57.051Z,89.05
2018-11-23T06:45:51.599Z,89.48
2018-11-23T06:46:51.458Z,89.58
2018-11-23T06:48:45.754Z,89.39
2018-11-23T06:49:45.746Z,89.48
2018-11-23T06:51:44.202Z,88.34
2018-11-23T06:52:44.194Z,88.43
2018-11-23T06:54:38.561Z,87.20
2018-11-23T06:55:38.551Z,87.77
2018-11-23T06:57:32.912Z,86.35
2018-11-23T06:58:32.905Z,86.16
2018-11-23T07:00:27.262Z,85.78
2018-11-23T07:01:27.515Z,85.78
2018-11-23T07:03:21.720Z,86.07
2018-11-23T07:04:21.593Z,86.63
2018-11-23T07:06:15.947Z,86.25
2018-11-23T07:07:15.937Z,86.72
2018-11-23T07:09:10.292Z,85.68
2018-11-23T07:10:10.283Z,85.97
2018-11-23T07:12:04.640Z,86.16
2018-11-23T07:13:04.631Z,85.87
2018-11-23T07:14:58.986Z,86.35
2018-11-23T07:15:58.982Z,85.97
2018-11-23T07:17:53.325Z,86.44
2018-11-23T07:18:53.315Z,86.91
2018-11-23T07:20:53.827Z,87.87
2018-11-23T07:21:52.569Z,87.68
2018-11-23T07:23:46.929Z,86.82
2018-11-23T07:24:46.922Z,87.01
2018-11-23T07:26:41.387Z,86.07
2018-11-23T07:27:41.258Z,86.16
2018-11-23T07:29:35.607Z,86.35
2018-11-23T07:30:35.593Z,86.44
2018-11-23T07:32:29.960Z,86.54
2018-11-23T07:33:29.944Z,86.44
2018-11-23T07:35:24.311Z,86.44
2018-11-23T07:36:24.305Z,86.16
2018-11-23T07:38:18.680Z,87.01
2018-11-23T07:39:18.664Z,87.11
2018-11-23T07:41:13.040Z,87.01
2018-11-23T07:42:13.037Z,87.11
2018-11-23T07:44:07.433Z,87.30
2018-11-23T07:45:07.407Z,86.44
2018-11-23T07:47:01.744Z,86.35
2018-11-23T07:48:01.727Z,86.72
2018-11-23T07:49:56.204Z,86.44
2018-11-23T07:50:56.073Z,86.54
2018-11-23T07:52:50.429Z,86.16
2018-11-23T07:53:50.423Z,86.16
2018-11-23T07:55:44.811Z,87.11
2018-11-23T07:56:44.767Z,87.77
2018-11-23T07:58:39.122Z,86.91
2018-11-23T07:59:39.105Z,86.16
2018-11-23T08:01:33.508Z,86.25
2018-11-23T08:02:33.461Z,86.72
2018-11-23T08:04:27.819Z,85.87
2018-11-23T08:05:27.812Z,85.49
2018-11-23T08:07:22.281Z,85.40
2018-11-23T08:08:22.156Z,85.68
2018-11-23T08:10:16.519Z,85.78
2018-11-23T08:11:16.506Z,85.87
2018-11-23T08:13:10.896Z,87.20
2018-11-23T08:14:10.843Z,87.01
2018-11-23T08:16:05.199Z,85.59
2018-11-23T08:17:05.199Z,85.30
2018-11-23T08:18:59.625Z,85.97
2018-11-23T08:19:59.550Z,86.25
2018-11-23T08:21:53.902Z,85.78
2018-11-23T08:22:53.894Z,85.59
2018-11-23T08:24:48.301Z,85.97
2018-11-23T08:25:48.250Z,86.07
2018-11-23T08:27:42.607Z,87.49
2018-11-23T08:28:42.595Z,87.49
2018-11-23T08:30:36.992Z,87.11
2018-11-23T08:31:36.946Z,87.11
2018-11-23T08:33:31.302Z,87.01
2018-11-23T08:34:31.292Z,86.35
2018-11-23T08:36:25.691Z,86.54
2018-11-23T08:37:25.640Z,86.82
2018-11-23T08:39:20.002Z,88.43
2018-11-23T08:40:19.988Z,88.06
2018-11-23T08:42:14.405Z,88.06
2018-11-23T08:43:14.355Z,87.49
2018-11-23T08:45:08.711Z,87.77
2018-11-23T08:46:08.700Z,86.91
2018-11-23T08:48:03.168Z,88.43
2018-11-23T08:49:03.075Z,88.43
2018-11-23T08:50:57.402Z,87.58
2018-11-23T08:51:57.389Z,88.06
2018-11-23T08:53:51.855Z,88.43
2018-11-23T08:54:51.738Z,88.72
2018-11-23T08:56:46.100Z,89.58
2018-11-23T08:57:46.083Z,89.20
2018-11-23T08:59:40.440Z,89.67
2018-11-23T09:00:40.430Z,90.05
2018-11-23T09:02:34.793Z,89.20
2018-11-23T09:03:34.784Z,89.39
2018-11-23T09:05:30.005Z,90.43
2018-11-23T09:06:29.929Z,90.90
2018-11-23T09:08:24.290Z,89.67
2018-11-23T09:09:24.281Z,90.05
2018-11-23T09:11:18.674Z,90.33
2018-11-23T09:12:18.630Z,89.48
2018-11-23T09:14:12.993Z,90.24
2018-11-23T09:15:12.982Z,90.85
2018-11-23T09:17:07.496Z,91.24
2018-11-23T09:18:07.339Z,91.42
2018-11-23T09:20:01.680Z,90.57
2018-11-23T09:21:01.670Z,90.47
2018-11-23T09:22:56.023Z,90.76
2018-11-23T09:23:56.013Z,91.14
2018-11-23T09:25:50.379Z,90.66
2018-11-23T09:26:50.398Z,90.76
2018-11-23T09:28:44.733Z,91.42
2018-11-23T09:29:44.718Z,91.24
2018-11-23T09:31:39.072Z,91.52
2018-11-23T09:32:39.063Z,91.89
2018-11-23T09:34:33.485Z,92.18
2018-11-23T09:35:33.430Z,90.85
2018-11-23T09:37:27.778Z,91.04
2018-11-23T09:38:27.764Z,90.52
2018-11-23T09:40:22.287Z,90.47
2018-11-23T09:41:22.112Z,91.14
2018-11-23T09:43:16.459Z,90.95
2018-11-23T09:44:16.489Z,91.24
2018-11-23T09:46:10.994Z,92.09
2018-11-23T09:47:10.797Z,91.52
2018-11-23T09:49:05.160Z,92.37
2018-11-23T09:50:05.153Z,92.28
2018-11-23T09:51:59.517Z,92.56
2018-11-23T09:52:59.497Z,92.94
2018-11-23T09:53:59.489Z,93.13
2018-11-23T09:54:59.476Z,92.47
2018-11-23T09:55:59.462Z,92.66
2018-11-23T09:56:59.463Z,92.28
2018-11-23T09:57:59.451Z,92.37
2018-11-23T09:58:59.445Z,92.09
2018-11-23T09:59:59.434Z,92.75
2018-11-23T10:00:59.431Z,92.18
2018-11-23T10:01:59.420Z,93.04
2018-11-23T10:02:59.417Z,92.47
2018-11-23T10:03:59.402Z,92.37
2018-11-23T10:04:59.393Z,93.23
2018-11-23T10:05:59.388Z,92.94
2018-11-23T10:06:59.374Z,92.66
2018-11-23T10:07:59.368Z,92.66
2018-11-23T10:08:59.370Z,92.66
2018-11-23T10:09:59.352Z,92.66
2018-11-23T10:10:59.342Z,93.04
2018-11-23T10:11:59.339Z,93.70
2018-11-23T10:12:59.327Z,94.08
2018-11-23T10:13:59.326Z,93.80
2018-11-23T10:14:59.308Z,94.03
2018-11-23T10:15:59.300Z,94.79
2018-11-23T10:16:59.295Z,94.89
2018-11-23T10:17:59.284Z,95.55
2018-11-23T10:18:59.274Z,95.36
2018-11-23T10:19:59.291Z,95.27
2018-11-23T10:20:59.263Z,95.46
2018-11-23T10:21:59.253Z,95.46
2018-11-23T10:22:59.251Z,95.36
2018-11-23T10:23:59.235Z,95.55
2018-11-23T10:24:59.225Z,95.08
2018-11-23T10:25:59.220Z,95.46
2018-11-23T10:26:59.238Z,95.84
2018-11-23T10:27:59.209Z,96.22
2018-11-23T10:28:59.194Z,95.75
2018-11-23T10:29:59.186Z,95.84
2018-11-23T10:30:59.177Z,95.84
2018-11-23T10:31:59.183Z,95.94
2018-11-23T10:32:59.164Z,96.22
2018-11-23T10:33:59.158Z,96.50
2018-11-23T10:34:59.146Z,96.69
2018-11-23T10:35:59.237Z,97.36
2018-11-23T10:36:59.132Z,97.22
2018-11-23T10:37:59.124Z,98.36
2018-11-23T10:38:59.114Z,98.55
2018-11-23T10:39:59.110Z,97.97
2018-11-23T10:40:59.105Z,97.69
2018-11-23T10:41:59.099Z,97.50
2018-11-23T10:42:59.084Z,98.17
2018-11-23T10:43:59.114Z,98.26
2018-11-23T10:44:59.072Z,97.31
2018-11-23T10:45:59.096Z,97.97
2018-11-23T10:46:59.097Z,98.45
2018-11-23T10:47:59.052Z,98.36
2018-11-23T10:48:59.045Z,98.07
2018-11-23T10:49:59.031Z,98.83
2018-11-23T10:50:59.023Z,98.07
2018-11-23T10:51:59.017Z,98.93
2018-11-23T10:52:59.007Z,97.88
2018-11-23T10:53:58.999Z,98.17
2018-11-23T10:54:59.029Z,98.83
2018-11-23T10:55:58.985Z,98.55
2018-11-23T10:56:58.985Z,98.83
2018-11-23T10:57:58.974Z,98.74
2018-11-23T10:58:58.985Z,98.93
2018-11-23T10:59:58.968Z,98.83
2018-11-23T11:00:58.945Z,99.97
2018-11-23T11:01:58.939Z,99.11
2018-11-23T11:02:58.940Z,99.02
2018-11-23T11:03:58.923Z,99.21
2018-11-23T11:04:58.917Z,99.02
2018-11-23T11:05:58.908Z,98.45
2018-11-23T11:06:58.903Z,99.21
2018-11-23T11:07:58.901Z,98.83
2018-11-23T11:08:58.952Z,98.83
2018-11-23T11:09:58.887Z,98.83
2018-11-23T11:10:58.872Z,99.40
2018-11-23T11:11:58.930Z,99.30
2018-11-23T11:12:58.855Z,99.11
2018-11-23T11:13:58.851Z,98.93
2018-11-23T11:14:58.841Z,98.74
2018-11-23T11:15:59.083Z,98.55
2018-11-23T11:16:58.834Z,99.07
2018-11-23T11:17:58.820Z,99.30
2018-11-23T11:18:58.816Z,98.97
2018-11-23T11:19:58.804Z,99.30
2018-11-23T11:20:58.805Z,98.79
2018-11-23T11:21:58.787Z,99.07
2018-11-23T11:22:58.780Z,98.97
2018-11-23T11:23:58.774Z,99.93
2018-11-23T11:24:58.766Z,98.79
2018-11-23T11:25:58.764Z,99.99
2018-11-23T11:26:58.754Z,99.45
2018-11-23T11:27:58.745Z,99.64
2018-11-23T11:28:58.738Z,98.79
2018-11-23T11:29:58.737Z,99.07
2018-11-23T11:30:58.726Z,99.16
2018-11-23T11:31:58.745Z,99.55
2018-11-23T11:32:58.710Z,99.36
2018-11-23T11:33:58.701Z,99.45
2018-11-23T11:34:58.694Z,98.97
2018-11-23T11:35:58.688Z,99.74
2018-11-23T11:36:58.681Z,99.64
2018-11-23T11:37:58.675Z,99.84
2018-11-23T11:38:58.667Z,99.74
2018-11-23T11:39:58.661Z,99.93
2018-11-23T11:40:58.764Z,99.99
2018-11-23T11:41:58.639Z,99.84
2018-11-23T11:42:58.639Z,99.45
2018-11-23T11:43:58.635Z,99.55
2018-11-23T11:44:59.006Z,99.99
2018-11-23T11:45:58.618Z,99.84
2018-11-23T11:46:58.610Z,99.45
2018-11-23T11:47:58.603Z,99.99
2018-11-23T11:48:58.607Z,99.93
2018-11-23T11:49:59.211Z,99.74
2018-11-23T11:50:58.579Z,99.84
2018-11-23T11:51:58.574Z,98.88
2018-11-23T11:52:58.567Z,99.93
2018-11-23T11:53:58.558Z,99.99
2018-11-23T11:54:58.548Z,99.99
2018-11-23T11:55:58.544Z,99.84
2018-11-23T11:56:58.539Z,99.93
2018-11-23T11:57:58.531Z,99.99
2018-11-23T11:58:58.526Z,99.93
2018-11-23T11:59:58.514Z,99.99
2018-11-23T12:00:58.511Z,99.99
2018-11-23T12:01:58.505Z,99.64
2018-11-23T12:02:58.495Z,99.99
2018-11-23T12:03:58.489Z,99.99
2018-11-23T12:04:58.570Z,99.84
2018-11-23T12:05:58.474Z,99.74
2018-11-23T12:06:58.467Z,99.99
2018-11-23T12:07:58.462Z,99.93
2018-11-23T12:08:58.457Z,99.93
2018-11-23T12:09:58.464Z,99.55
2018-11-23T12:10:58.439Z,99.99
2018-11-23T12:11:58.483Z,99.74
2018-11-23T12:12:58.490Z,99.84
2018-11-23T12:13:58.422Z,99.74
2018-11-23T12:14:58.449Z,99.55
2018-11-23T12:15:58.401Z,99.26
2018-11-23T12:16:58.417Z,99.84
2018-11-23T12:17:58.392Z,99.55
2018-11-23T12:18:58.424Z,99.99
2018-11-23T12:19:58.386Z,99.99
2018-11-23T12:20:58.371Z,99.74
2018-11-23T12:21:58.362Z,99.93
2018-11-23T12:22:58.356Z,99.84
2018-11-23T12:23:58.349Z,99.07
2018-11-23T12:24:58.341Z,99.84
2018-11-23T12:25:58.337Z,99.99
2018-11-23T12:26:58.344Z,99.74
2018-11-23T12:27:58.324Z,99.16
2018-11-23T12:28:58.318Z,98.88
2018-11-23T12:29:58.309Z,99.26
2018-11-23T12:30:58.301Z,99.64
2018-11-23T12:31:58.301Z,99.26
2018-11-23T12:32:59.286Z,99.45
2018-11-23T12:33:58.282Z,98.79
2018-11-23T12:34:58.281Z,98.88
2018-11-23T12:35:58.440Z,99.07
2018-11-23T12:36:58.268Z,99.36
2018-11-23T12:37:58.268Z,99.93
2018-11-23T12:38:58.247Z,99.99
2018-11-23T12:39:58.248Z,98.97
2018-11-23T12:40:58.231Z,98.79
2018-11-23T12:41:58.296Z,99.07
2018-11-23T12:42:58.257Z,98.50
2018-11-23T12:43:58.235Z,98.31
2018-11-23T12:44:58.361Z,98.31
2018-11-23T12:45:58.264Z,98.41
2018-11-23T12:46:58.195Z,98.88
2018-11-23T12:47:59.028Z,99.26
2018-11-23T12:48:58.192Z,99.07
2018-11-23T12:49:58.437Z,98.46
2018-11-23T12:50:58.166Z,98.79
2018-11-23T12:51:58.154Z,98.88
2018-11-23T12:53:01.555Z,98.88
2018-11-23T12:53:58.142Z,99.31
2018-11-23T12:54:58.134Z,99.31
2018-11-23T12:55:58.126Z,99.02
2018-11-23T12:56:58.123Z,99.69
2018-11-23T12:57:58.124Z,98.74
2018-11-23T12:58:58.108Z,99.31
2018-11-23T12:59:58.101Z,99.22
2018-11-23T13:00:58.096Z,98.93
2018-11-23T13:01:58.092Z,99.22
2018-11-23T13:02:58.081Z,99.12
2018-11-23T13:03:58.134Z,99.02
2018-11-23T13:04:58.068Z,98.65
2018-11-23T13:05:58.063Z,98.74
2018-11-23T13:06:58.093Z,99.12
2018-11-23T13:07:58.046Z,99.22
2018-11-23T13:08:58.046Z,99.12
2018-11-23T13:09:58.171Z,98.08
2018-11-23T13:10:59.106Z,98.27
2018-11-23T13:11:58.019Z,98.46
2018-11-23T13:12:58.347Z,98.46
2018-11-23T13:13:58.000Z,98.46
2018-11-23T13:14:58.001Z,98.27
2018-11-23T13:15:57.991Z,98.65
2018-11-23T13:16:57.991Z,99.31
2018-11-23T13:17:57.980Z,99.02
2018-11-23T13:18:57.973Z,99.31
2018-11-23T13:19:57.965Z,99.79
2018-11-23T13:20:57.959Z,99.12
2018-11-23T13:21:58.170Z,99.02
2018-11-23T13:22:57.961Z,99.31
2018-11-23T13:23:57.936Z,98.83
2018-11-23T13:24:57.934Z,99.41
2018-11-23T13:25:57.985Z,98.83
2018-11-23T13:26:57.919Z,98.93
2018-11-23T13:27:57.913Z,98.93
2018-11-23T13:28:57.906Z,99.02
2018-11-23T13:29:57.901Z,98.83
2018-11-23T13:30:57.895Z,99.12
2018-11-23T13:31:57.913Z,99.31
2018-11-23T13:32:57.892Z,98.93
2018-11-23T13:33:57.873Z,99.31
2018-11-23T13:34:57.875Z,99.69
2018-11-23T13:35:57.882Z,98.36
2018-11-23T13:36:57.855Z,98.93
2018-11-23T13:37:57.847Z,99.12
2018-11-23T13:38:57.845Z,98.08
2018-11-23T13:39:57.833Z,98.36
2018-11-23T13:40:57.826Z,99.22
2018-11-23T13:41:57.821Z,99.12
2018-11-23T13:42:57.812Z,98.36
2018-11-23T13:43:57.808Z,99.02
2018-11-23T13:44:57.800Z,99.12
2018-11-23T13:45:57.787Z,98.93
2018-11-23T13:46:57.789Z,98.65
2018-11-23T13:47:57.780Z,99.22
2018-11-23T13:48:57.782Z,98.46
2018-11-23T13:49:57.767Z,98.46
2018-11-23T13:50:57.759Z,98.17
2018-11-23T13:51:57.754Z,98.65
2018-11-23T13:52:57.751Z,98.65
2018-11-23T13:53:57.740Z,99.02
2018-11-23T13:54:57.743Z,98.27
2018-11-23T13:55:57.727Z,98.46
2018-11-23T13:56:57.719Z,98.08
2018-11-23T13:57:57.713Z,97.98
2018-11-23T13:58:57.705Z,97.88
2018-11-23T13:59:57.707Z,98.08
2018-11-23T14:00:57.693Z,98.08
2018-11-23T14:01:57.680Z,97.41
2018-11-23T14:02:57.684Z,97.41
2018-11-23T14:03:58.607Z,97.13
2018-11-23T14:04:57.697Z,97.79
2018-11-23T14:05:57.659Z,97.31
2018-11-23T14:06:57.660Z,97.60
2018-11-23T14:07:57.653Z,97.41
2018-11-23T14:08:57.638Z,97.50
2018-11-23T14:09:57.633Z,97.22
2018-11-23T14:10:57.624Z,97.79
2018-11-23T14:11:57.630Z,97.50
2018-11-23T14:12:57.638Z,97.13
2018-11-23T14:13:57.606Z,97.03
2018-11-23T14:14:58.078Z,96.74
2018-11-23T14:15:57.610Z,96.55
2018-11-23T14:16:57.584Z,96.94
2018-11-23T14:17:57.579Z,96.65
2018-11-23T14:18:57.573Z,96.46
2018-11-23T14:19:57.564Z,96.84
2018-11-23T14:20:57.554Z,96.55
2018-11-23T14:21:57.549Z,95.84
2018-11-23T14:22:57.546Z,96.03
2018-11-23T14:23:57.544Z,95.84
2018-11-23T14:24:57.528Z,95.46
2018-11-23T14:25:57.521Z,95.56
2018-11-23T14:26:57.512Z,95.46
2018-11-23T14:27:57.505Z,95.46
2018-11-23T14:28:57.501Z,95.17
2018-11-23T14:29:57.496Z,94.79
2018-11-23T14:30:57.485Z,94.32
2018-11-23T14:31:57.481Z,94.42
2018-11-23T14:32:57.489Z,94.60
2018-11-23T14:33:57.477Z,94.51
2018-11-23T14:34:57.458Z,94.13
2018-11-23T14:35:57.451Z,94.32
2018-11-23T14:36:57.445Z,94.22
2018-11-23T14:37:57.444Z,94.51
2018-11-23T14:38:57.491Z,94.13
2018-11-23T14:39:57.424Z,94.60
2018-11-23T14:40:57.433Z,94.22
2018-11-23T14:41:57.408Z,94.42
2018-11-23T14:42:57.400Z,94.22
2018-11-23T14:43:57.390Z,94.13
2018-11-23T14:44:57.389Z,94.42
2018-11-23T14:45:57.380Z,94.22
2018-11-23T14:46:57.366Z,94.32
2018-11-23T14:47:57.362Z,94.32
2018-11-23T14:48:57.355Z,94.89
2018-11-23T14:49:57.347Z,94.51
2018-11-23T14:50:57.339Z,94.32
2018-11-23T14:51:57.337Z,94.32
2018-11-23T14:52:57.329Z,94.03
2018-11-23T14:53:57.323Z,94.13
2018-11-23T14:54:57.314Z,94.51
2018-11-23T14:55:57.307Z,94.22
2018-11-23T14:56:57.301Z,93.55
2018-11-23T14:57:57.290Z,94.03
2018-11-23T14:58:57.284Z,94.22
2018-11-23T14:59:57.275Z,94.22
2018-11-23T15:00:57.266Z,94.22
2018-11-23T15:01:57.273Z,94.22
2018-11-23T15:02:57.361Z,94.42
2018-11-23T15:03:57.244Z,94.42
2018-11-23T15:04:57.239Z,94.13
2018-11-23T15:05:57.236Z,94.03
2018-11-23T15:06:57.227Z,94.22
2018-11-23T15:07:57.220Z,94.03
2018-11-23T15:08:57.208Z,94.13
2018-11-23T15:09:57.271Z,93.84
2018-11-23T15:10:57.191Z,93.75
2018-11-23T15:11:57.184Z,93.79
2018-11-23T15:12:57.403Z,94.03
2018-11-23T15:13:57.172Z,94.22
2018-11-23T15:14:58.489Z,94.27
2018-11-23T15:15:57.426Z,93.60
2018-11-23T15:16:57.256Z,93.99
2018-11-23T15:17:57.143Z,93.89
2018-11-23T15:18:57.595Z,93.13
2018-11-23T15:19:57.205Z,93.13
2018-11-23T15:20:57.123Z,94.08
2018-11-23T15:21:57.141Z,92.94
2018-11-23T15:22:57.098Z,93.04
2018-11-23T15:23:57.332Z,93.32
2018-11-23T15:24:57.090Z,93.13
2018-11-23T15:25:57.078Z,92.94
2018-11-23T15:26:57.278Z,92.85
2018-11-23T15:27:57.077Z,92.75
2018-11-23T15:28:57.057Z,93.23
2018-11-23T15:29:57.047Z,93.04
2018-11-23T15:30:57.044Z,92.85
2018-11-23T15:31:57.033Z,92.75
2018-11-23T15:32:57.026Z,92.27
2018-11-23T15:33:57.546Z,92.94
2018-11-23T15:34:57.007Z,92.56
2018-11-23T15:35:57.004Z,92.66
2018-11-23T15:36:56.993Z,92.85
2018-11-23T15:37:56.986Z,92.66
2018-11-23T15:38:56.977Z,91.80
2018-11-23T15:39:56.972Z,92.27
2018-11-23T15:40:56.964Z,92.18
2018-11-23T15:41:56.953Z,91.99
2018-11-23T15:42:56.968Z,91.80
2018-11-23T15:43:56.938Z,92.08
2018-11-23T15:44:56.931Z,92.18
2018-11-23T15:45:56.922Z,92.18
2018-11-23T15:46:56.915Z,91.99
2018-11-23T15:47:56.906Z,92.37
2018-11-23T15:48:56.899Z,92.56
2018-11-23T15:49:56.893Z,92.18
2018-11-23T15:50:56.885Z,92.18
2018-11-23T15:51:56.875Z,92.18
2018-11-23T15:52:56.868Z,91.99
2018-11-23T15:53:56.862Z,92.18
2018-11-23T15:54:56.853Z,91.61
2018-11-23T15:55:56.845Z,92.56
2018-11-23T15:56:56.839Z,92.66
2018-11-23T15:57:56.843Z,92.56